Time;durP1;ratioP1;P1;durP2;ratioP2;P2;SDS_P1;SDS_P2;PMS_P1;PMS_P2;Temp;Humidity;BMP_temperature;BMP_pressure;BME280_temperature;BME280_humidity;BME280_pressure;Samples;Min_cycle;Max_cycle;Signal;HPM_P1;HPM_P2
2022/05/21 00:01:23;;;;;;;6.45;3.22;;;27.60;99.90;;;;;;4151486;28;20053;-67
2022/05/21 00:03:29;;;;;;;9.35;3.83;;;27.60;99.90;;;;;;4142706;28;20052;-66
2022/05/21 00:05:34;;;;;;;5.68;3.20;;;27.60;99.90;;;;;;4142053;28;20122;-65
2022/05/21 00:07:47;;;;;;;7.80;3.25;;;27.70;99.90;;;;;;4141170;28;20073;-67
2022/05/21 00:09:51;;;;;;;10.35;3.90;;;27.80;99.90;;;;;;4138301;28;20046;-66
2022/05/21 00:11:56;;;;;;;4.78;3.30;;;27.80;99.90;;;;;;4139687;28;20121;-66
2022/05/21 00:14:02;;;;;;;4.97;3.22;;;27.80;99.90;;;;;;4139246;28;20054;-66
2022/05/21 00:16:08;;;;;;;7.30;3.50;;;27.80;99.90;;;;;;4124687;28;20501;-65
2022/05/21 00:18:19;;;;;;;5.60;3.00;;;27.70;99.90;;;;;;4139300;28;20061;-65
2022/05/21 00:22:41;;;;;;;7.60;3.70;;;27.70;99.90;;;;;;4139490;28;20533;-65
2022/05/21 00:24:46;;;;;;;6.13;3.53;;;27.70;99.90;;;;;;4138844;28;20041;-65
2022/05/21 00:26:50;;;;;;;6.30;3.53;;;27.60;99.90;;;;;;4141361;28;20287;-66
2022/05/21 00:29:03;;;;;;;8.00;3.53;;;27.70;99.90;;;;;;4140393;28;20061;-67
2022/05/21 00:31:10;;;;;;;5.63;3.50;;;27.70;99.90;;;;;;4124423;28;20105;-67
2022/05/21 00:33:16;;;;;;;7.35;3.20;;;27.80;99.90;;;;;;4124054;28;20058;-66
2022/05/21 00:35:27;;;;;;;6.80;3.15;;;27.80;99.90;;;;;;4138626;28;20046;-68
2022/05/21 00:37:34;;;;;;;13.23;3.67;;;27.80;99.90;;;;;;4139896;28;20073;-66
2022/05/21 00:39:39;;;;;;;11.55;3.67;;;27.80;99.90;;;;;;4138357;28;20042;-67
2022/05/21 00:41:44;;;;;;;8.88;4.13;;;27.90;99.90;;;;;;4140224;28;20081;-66
2022/05/21 00:43:52;;;;;;;5.07;3.15;;;27.90;99.90;;;;;;4131514;28;20886;-67
2022/05/21 00:45:59;;;;;;;5.95;3.30;;;27.90;99.90;;;;;;4120419;28;20714;-67
2022/05/21 00:48:10;;;;;;;7.45;3.75;;;28.00;99.90;;;;;;4103029;28;20054;-67
2022/05/21 00:50:16;;;;;;;6.18;3.38;;;28.00;99.90;;;;;;4139354;28;20053;-66
2022/05/21 00:52:23;;;;;;;9.73;3.47;;;28.00;99.90;;;;;;4132601;28;20459;-67
2022/05/21 00:54:34;;;;;;;10.05;3.88;;;28.00;99.90;;;;;;4139521;28;20165;-66
2022/05/21 00:56:43;;;;;;;7.20;3.35;;;28.10;99.90;;;;;;4155952;28;20057;-67
2022/05/21 01:01:06;;;;;;;4.55;2.97;;;28.10;99.90;;;;;;4126621;28;20736;-67
2022/05/21 01:03:11;;;;;;;5.38;2.90;;;28.10;99.90;;;;;;4139490;28;20057;-66
2022/05/21 01:05:20;;;;;;;9.15;3.45;;;28.20;99.90;;;;;;4136495;28;20046;-66
2022/05/21 01:07:32;;;;;;;6.82;3.50;;;28.30;99.90;;;;;;4139783;28;20041;-66
2022/05/21 01:09:39;;;;;;;4.50;3.63;;;28.30;99.90;;;;;;4136549;28;20061;-67
2022/05/21 01:11:46;;;;;;;5.53;3.03;;;28.30;99.90;;;;;;4135244;28;20058;-66
2022/05/21 01:13:56;;;;;;;6.95;3.03;;;28.40;99.90;;;;;;4160481;28;20475;-66
2022/05/21 01:16:06;;;;;;;7.53;3.50;;;28.50;99.90;;;;;;4139675;28;20056;-66
2022/05/21 01:18:10;;;;;;;7.53;3.50;;;28.50;99.90;;;;;;4155350;28;20114;-66
2022/05/21 01:20:21;;;;;;;7.35;3.47;;;28.50;99.90;;;;;;4141272;28;20042;-66
2022/05/21 01:22:31;;;;;;;8.35;3.33;;;28.50;99.90;;;;;;4158581;28;20041;-67
2022/05/21 01:24:36;;;;;;;6.03;2.90;;;28.60;99.90;;;;;;4151939;28;20045;-67
2022/05/21 01:26:41;;;;;;;9.48;2.80;;;28.60;99.90;;;;;;4149730;28;20065;-67
2022/05/21 01:28:48;;;;;;;4.85;2.58;;;28.70;99.90;;;;;;4152347;28;20061;-67
2022/05/21 01:30:56;;;;;;;10.85;3.72;;;28.70;99.90;;;;;;4136139;28;20574;-66
2022/05/21 01:33:04;;;;;;;7.78;2.80;;;28.80;99.90;;;;;;4136485;28;20057;-66
2022/05/21 01:35:10;;;;;;;6.07;2.70;;;28.80;99.90;;;;;;4136341;28;20141;-66
2022/05/21 01:37:17;;;;;;;5.15;2.78;;;28.80;99.90;;;;;;4136480;28;20516;-67
2022/05/21 01:39:22;;;;;;;6.55;2.80;;;28.80;99.90;;;;;;4134878;28;20571;-66
2022/05/21 01:41:27;;;;;;;7.45;3.08;;;28.80;99.90;;;;;;4124103;28;20050;-66
2022/05/21 01:45:52;;;;;;;4.47;2.45;;;28.80;99.90;;;;;;4125870;28;20042;-66
2022/05/21 01:48:04;;;;;;;5.18;2.70;;;28.80;99.90;;;;;;4118416;28;20097;-66
2022/05/21 01:50:16;;;;;;;6.15;2.85;;;28.80;99.90;;;;;;4091632;28;20078;-66
2022/05/21 01:52:27;;;;;;;7.43;3.00;;;28.90;99.90;;;;;;4104870;28;20066;-66
2022/05/21 01:54:32;;;;;;;6.45;2.60;;;28.90;99.90;;;;;;4119691;28;20074;-67
2022/05/21 01:56:38;;;;;;;6.38;2.70;;;28.90;99.90;;;;;;4088000;28;20047;-67
2022/05/21 01:58:46;;;;;;;5.55;2.67;;;29.00;99.90;;;;;;4133560;28;20046;-66
2022/05/21 02:00:54;;;;;;;4.20;2.42;;;29.00;99.90;;;;;;4117402;28;20077;-68
2022/05/21 02:02:58;;;;;;;6.35;3.05;;;29.00;99.90;;;;;;4102139;28;20047;-67
2022/05/21 02:05:04;;;;;;;7.78;2.95;;;29.00;99.90;;;;;;4119185;28;20105;-67
2022/05/21 02:07:11;;;;;;;6.68;3.00;;;29.00;99.90;;;;;;4102601;28;20046;-67
2022/05/21 02:09:20;;;;;;;5.05;2.63;;;29.10;99.90;;;;;;4117085;28;20038;-67
2022/05/21 02:11:40;;;;;;;5.30;2.70;;;29.10;99.90;;;;;;4136299;28;20093;-66
2022/05/21 02:13:55;;;;;;;4.28;2.80;;;29.10;99.90;;;;;;4138599;28;20061;-67
2022/05/21 02:16:05;;;;;;;7.13;3.05;;;29.20;99.90;;;;;;4137905;28;20136;-66
2022/05/21 02:18:21;;;;;;;6.03;2.92;;;29.20;99.90;;;;;;4137666;28;20041;-67
2022/05/21 02:20:27;;;;;;;5.28;2.75;;;29.20;99.90;;;;;;4121752;28;20034;-66
2022/05/21 02:22:49;;;;;;;5.35;2.90;;;29.30;99.90;;;;;;4140574;28;20854;-67
2022/05/21 02:24:55;;;;;;;6.22;2.90;;;29.30;99.90;;;;;;4134964;28;20045;-67
2022/05/21 02:27:11;;;;;;;6.15;3.00;;;29.30;99.90;;;;;;4135747;28;20037;-68
2022/05/21 02:29:18;;;;;;;3.70;2.97;;;29.30;99.90;;;;;;4134842;28;20367;-68
2022/05/21 02:31:22;;;;;;;5.65;2.72;;;29.20;99.90;;;;;;4130691;28;20808;-68
2022/05/21 02:33:31;;;;;;;5.68;3.05;;;29.20;99.90;;;;;;4141173;28;20049;-67
2022/05/21 02:35:43;;;;;;;4.15;2.60;;;29.10;99.90;;;;;;4142752;28;20048;-68
2022/05/21 02:40:06;;;;;;;6.10;2.67;;;29.00;99.90;;;;;;4112567;28;20078;-67
2022/05/21 02:44:31;;;;;;;6.78;3.03;;;29.10;99.90;;;;;;4134907;28;20124;-68
2022/05/21 02:46:37;;;;;;;6.80;3.15;;;29.10;99.90;;;;;;4113804;28;20042;-67
2022/05/21 02:48:42;;;;;;;6.80;3.22;;;29.20;99.90;;;;;;4137879;28;20064;-68
2022/05/21 02:50:47;;;;;;;7.15;2.75;;;29.20;99.90;;;;;;4148993;28;20164;-68
2022/05/21 02:52:52;;;;;;;6.25;2.80;;;29.30;99.90;;;;;;4142490;28;20061;-67
2022/05/21 02:54:57;;;;;;;5.85;3.03;;;29.30;99.90;;;;;;4139782;28;20104;-68
2022/05/21 02:57:03;;;;;;;4.05;3.03;;;29.40;99.90;;;;;;4141879;28;20056;-67
2022/05/21 02:59:14;;;;;;;9.05;3.13;;;29.50;99.90;;;;;;4144618;28;20134;-68
2022/05/21 03:01:22;;;;;;;4.65;2.75;;;29.60;99.90;;;;;;4135275;28;20056;-67
2022/05/21 03:03:34;;;;;;;4.00;2.78;;;29.60;99.90;;;;;;4142763;28;20420;-67
2022/05/21 03:05:39;;;;;;;4.85;2.47;;;29.70;99.90;;;;;;4144365;28;20045;-68
2022/05/21 03:07:46;;;;;;;6.10;2.47;;;29.80;99.90;;;;;;4121622;28;20591;-68
2022/05/21 03:12:13;;;;;;;7.63;3.28;;;29.80;99.90;;;;;;4137651;28;20057;-68
2022/05/21 03:14:22;;;;;;;6.07;2.75;;;29.80;99.90;;;;;;4133209;28;20149;-68
2022/05/21 03:16:28;;;;;;;4.30;2.40;;;29.80;99.90;;;;;;4140705;28;20579;-68
2022/05/21 03:18:36;;;;;;;4.90;2.88;;;29.80;99.90;;;;;;4141876;28;20088;-67
2022/05/21 03:20:42;;;;;;;4.75;2.30;;;29.80;99.90;;;;;;4141121;28;20133;-67
2022/05/21 03:22:48;;;;;;;3.80;2.50;;;29.90;99.90;;;;;;4142580;28;20045;-68
2022/05/21 03:24:54;;;;;;;9.13;2.40;;;29.90;99.90;;;;;;4141563;28;20054;-68
2022/05/21 03:27:07;;;;;;;9.88;3.47;;;29.90;99.90;;;;;;4142234;28;20049;-68
2022/05/21 03:29:14;;;;;;;5.22;2.67;;;29.90;99.90;;;;;;4142062;28;20054;-68
2022/05/21 03:31:25;;;;;;;4.47;2.60;;;29.90;99.90;;;;;;4142377;28;20046;-68
2022/05/21 03:33:32;;;;;;;7.18;3.22;;;29.80;99.90;;;;;;4140272;28;20069;-68
2022/05/21 03:35:41;;;;;;;4.90;2.17;;;29.80;99.90;;;;;;4141816;28;20112;-68
2022/05/21 03:37:47;;;;;;;3.88;2.30;;;29.70;99.90;;;;;;4151874;28;20136;-68
2022/05/21 03:39:54;;;;;;;3.58;2.05;;;29.70;99.90;;;;;;4143785;28;20053;-67
2022/05/21 03:42:00;;;;;;;4.90;2.40;;;29.70;99.90;;;;;;4142596;28;20072;-67
2022/05/21 03:44:08;;;;;;;5.38;2.60;;;29.70;99.90;;;;;;4143929;28;20049;-68
2022/05/21 03:46:24;;;;;;;3.00;2.42;;;29.80;99.90;;;;;;4154850;28;20049;-67
2022/05/21 03:48:39;;;;;;;4.13;2.40;;;29.70;99.90;;;;;;4140411;28;20055;-66
2022/05/21 03:50:46;;;;;;;8.02;2.72;;;29.70;99.90;;;;;;4135906;28;20564;-66
2022/05/21 03:52:51;;;;;;;3.58;2.20;;;29.70;99.90;;;;;;4141361;28;20042;-67
2022/05/21 03:54:59;;;;;;;11.98;6.10;;;29.70;99.90;;;;;;4148657;28;20049;-66
2022/05/21 03:57:04;;;;;;;14.75;6.57;;;29.60;99.90;;;;;;4141857;28;20038;-67
2022/05/21 03:59:17;;;;;;;8.65;3.95;;;29.60;99.90;;;;;;4144197;28;20578;-66
2022/05/21 04:01:30;;;;;;;12.77;5.07;;;29.60;99.90;;;;;;4140357;28;20120;-68
2022/05/21 04:03:36;;;;;;;7.22;3.38;;;29.60;99.90;;;;;;4141420;28;20069;-69
2022/05/21 04:05:42;;;;;;;22.42;7.50;;;29.60;99.90;;;;;;4142185;28;20037;-67
2022/05/21 04:07:47;;;;;;;14.68;5.45;;;29.60;99.90;;;;;;4152459;28;20124;-68
2022/05/21 04:09:54;;;;;;;9.05;3.78;;;29.60;99.90;;;;;;4141615;28;20120;-67
2022/05/21 04:12:00;;;;;;;7.10;3.13;;;29.60;99.90;;;;;;4141724;28;20054;-68
2022/05/21 04:14:07;;;;;;;5.35;3.00;;;29.50;99.90;;;;;;4125975;28;20043;-67
2022/05/21 04:16:18;;;;;;;10.55;2.70;;;29.50;99.90;;;;;;4142170;28;20049;-67
2022/05/21 04:18:24;;;;;;;5.05;2.20;;;29.40;99.90;;;;;;4140013;28;20054;-67
2022/05/21 04:20:30;;;;;;;4.90;2.45;;;29.40;99.90;;;;;;4140587;28;20084;-68
2022/05/21 04:22:36;;;;;;;3.17;2.25;;;29.30;99.90;;;;;;4140499;28;20536;-68
2022/05/21 04:24:43;;;;;;;4.28;2.28;;;29.20;99.90;;;;;;4142397;28;20499;-67
2022/05/21 04:26:48;;;;;;;3.25;2.42;;;29.20;99.90;;;;;;4139811;28;20120;-67
2022/05/21 04:28:55;;;;;;;4.97;2.80;;;29.20;99.90;;;;;;4139062;28;20057;-68
2022/05/21 04:30:59;;;;;;;4.70;2.60;;;29.20;99.90;;;;;;4139886;28;20049;-68
2022/05/21 04:33:06;;;;;;;5.18;2.55;;;29.20;99.90;;;;;;4141576;28;20057;-67
2022/05/21 04:35:13;;;;;;;4.80;2.33;;;29.30;99.90;;;;;;4141306;28;20054;-68
2022/05/21 04:37:21;;;;;;;7.05;2.75;;;29.30;99.90;;;;;;4140466;28;20064;-67
2022/05/21 04:39:27;;;;;;;4.28;2.38;;;29.40;99.90;;;;;;4140585;28;20077;-68
2022/05/21 04:41:39;;;;;;;5.78;2.63;;;29.40;99.90;;;;;;4142148;28;20488;-68
2022/05/21 04:43:44;;;;;;;5.30;2.42;;;29.40;99.90;;;;;;4139586;28;20049;-68
2022/05/21 04:45:50;;;;;;;5.28;2.47;;;29.40;99.90;;;;;;4142169;28;20045;-68
2022/05/21 04:47:55;;;;;;;5.40;2.45;;;29.30;99.90;;;;;;4139159;28;20140;-68
2022/05/21 04:50:02;;;;;;;5.82;2.40;;;29.30;99.90;;;;;;4140599;28;20056;-68
2022/05/21 04:52:11;;;;;;;3.97;2.30;;;29.30;99.90;;;;;;4136227;28;20049;-68
2022/05/21 04:54:17;;;;;;;7.00;2.80;;;29.40;99.90;;;;;;4123886;28;20062;-68
2022/05/21 04:56:29;;;;;;;5.68;2.70;;;29.50;99.90;;;;;;4140366;28;20092;-68
2022/05/21 04:58:45;;;;;;;5.63;2.75;;;29.80;99.90;;;;;;4141122;28;20049;-67
2022/05/21 05:00:52;;;;;;;6.78;2.58;;;29.90;99.90;;;;;;4139904;28;20555;-67
2022/05/21 05:03:03;;;;;;;5.07;2.15;;;30.20;99.90;;;;;;4139443;28;20050;-67
2022/05/21 05:05:14;;;;;;;3.25;2.17;;;30.40;99.90;;;;;;4139615;28;20560;-67
2022/05/21 05:07:23;;;;;;;4.80;2.30;;;30.60;99.90;;;;;;4136609;28;20052;-66
2022/05/21 05:09:29;;;;;;;6.00;2.08;;;30.80;99.90;;;;;;4132891;28;20046;-67
2022/05/21 05:11:39;;;;;;;4.90;2.20;;;30.80;99.90;;;;;;4139631;28;20058;-68
2022/05/21 05:13:44;;;;;;;4.47;2.08;;;30.90;99.90;;;;;;4137354;28;20049;-68
2022/05/21 05:15:50;;;;;;;3.72;1.80;;;30.80;99.90;;;;;;4138654;28;20048;-67
2022/05/21 05:18:04;;;;;;;8.63;1.88;;;30.70;99.90;;;;;;4140032;28;20056;-67
2022/05/21 05:20:12;;;;;;;3.80;1.50;;;30.70;99.90;;;;;;4130305;28;20140;-67
2022/05/21 05:22:25;;;;;;;5.38;1.70;;;30.80;99.90;;;;;;4138965;28;20061;-67
2022/05/21 05:24:32;;;;;;;2.65;1.30;;;30.80;99.90;;;;;;4137938;28;20495;-68
2022/05/21 05:26:42;;;;;;;3.08;1.55;;;30.70;99.90;;;;;;4138628;28;20087;-68
2022/05/21 05:28:47;;;;;;;4.80;1.85;;;30.70;99.90;;;;;;4138975;28;20096;-69
2022/05/21 05:30:53;;;;;;;5.82;1.80;;;30.60;99.90;;;;;;4155156;28;20045;-68
2022/05/21 05:32:57;;;;;;;3.28;1.65;;;30.50;99.90;;;;;;4138927;28;20050;-67
2022/05/21 05:35:19;;;;;;;4.20;1.60;;;30.40;99.90;;;;;;4138824;28;20497;-69
2022/05/21 05:37:33;;;;;;;5.57;1.80;;;30.40;99.90;;;;;;4138089;28;20078;-67
2022/05/21 05:39:39;;;;;;;4.55;1.75;;;30.40;99.90;;;;;;4138463;28;20053;-67
2022/05/21 05:41:47;;;;;;;6.90;1.73;;;30.40;99.90;;;;;;4136419;28;20053;-67
2022/05/21 05:43:54;;;;;;;4.93;1.50;;;30.40;99.90;;;;;;4133096;28;20050;-67
2022/05/21 05:46:01;;;;;;;4.15;1.63;;;30.40;99.90;;;;;;4121521;28;20223;-68
2022/05/21 05:48:13;;;;;;;3.35;1.73;;;30.40;99.90;;;;;;4137472;28;20626;-68
2022/05/21 05:50:23;;;;;;;3.53;1.63;;;30.50;99.90;;;;;;4135731;28;20298;-69
2022/05/21 05:52:40;;;;;;;5.55;1.70;;;30.60;99.90;;;;;;4136008;28;20053;-68
2022/05/21 05:54:50;;;;;;;4.32;1.60;;;30.80;99.90;;;;;;4140409;28;20045;-67
2022/05/21 05:56:56;;;;;;;2.53;1.50;;;31.20;99.90;;;;;;4127054;28;20117;-67
2022/05/21 06:01:20;;;;;;;6.18;2.22;;;31.40;99.90;;;;;;4141180;28;20073;-67
2022/05/21 06:03:25;;;;;;;4.07;1.92;;;31.30;99.90;;;;;;4137488;28;20038;-68
2022/05/21 06:05:33;;;;;;;3.85;1.92;;;31.30;99.90;;;;;;4140258;28;20050;-67
2022/05/21 06:07:46;;;;;;;7.03;2.25;;;31.30;99.90;;;;;;4121709;28;20579;-67
2022/05/21 06:10:01;;;;;;;5.55;2.00;;;31.30;99.90;;;;;;4138172;28;20453;-67
2022/05/21 06:12:11;;;;;;;7.10;1.88;;;31.50;99.90;;;;;;4138345;28;20053;-67
2022/05/21 06:14:17;;;;;;;4.82;1.63;;;31.60;99.90;;;;;;4144518;28;20173;-67
2022/05/21 06:16:23;;;;;;;3.70;1.55;;;31.60;99.90;;;;;;4139673;28;20556;-68
2022/05/21 06:18:30;;;;;;;3.20;1.52;;;31.80;99.90;;;;;;4139307;28;20104;-67
2022/05/21 06:20:43;;;;;;;2.23;1.60;;;32.00;99.90;;;;;;4122283;28;20046;-68
2022/05/21 06:22:48;;;;;;;3.20;1.60;;;32.10;99.90;;;;;;4150353;28;20045;-68
2022/05/21 06:24:53;;;;;;;2.58;1.52;;;32.20;99.90;;;;;;4136102;28;20466;-67
2022/05/21 06:27:00;;;;;;;4.50;1.70;;;32.30;99.90;;;;;;4127162;28;20054;-67
2022/05/21 06:29:04;;;;;;;2.40;1.55;;;32.10;99.90;;;;;;4143325;28;20145;-67
2022/05/21 06:31:12;;;;;;;2.90;1.33;;;32.10;99.90;;;;;;4142579;28;20052;-67
2022/05/21 06:33:25;;;;;;;3.17;1.50;;;32.20;99.90;;;;;;4141441;28;20841;-67
2022/05/21 06:35:33;;;;;;;4.60;1.65;;;32.10;99.90;;;;;;4143603;28;20056;-67
2022/05/21 06:37:39;;;;;;;3.15;1.30;;;32.20;99.90;;;;;;4142737;28;20058;-67
2022/05/21 06:39:45;;;;;;;6.75;1.58;;;32.30;99.50;;;;;;4141938;28;20913;-67
2022/05/21 06:41:51;;;;;;;2.95;1.40;;;32.50;99.10;;;;;;4145574;28;20128;-67
2022/05/21 06:43:58;;;;;;;3.60;1.50;;;32.60;99.40;;;;;;4142392;28;20085;-67
2022/05/21 06:46:03;;;;;;;3.05;1.40;;;32.50;99.40;;;;;;4142278;28;20464;-66
2022/05/21 06:48:12;;;;;;;4.50;1.60;;;32.40;99.90;;;;;;4139377;28;20048;-66
2022/05/21 06:50:17;;;;;;;4.95;1.40;;;32.30;99.80;;;;;;4126701;28;20112;-67
2022/05/21 06:52:26;;;;;;;4.38;1.70;;;32.00;99.80;;;;;;4135235;28;20149;-68
2022/05/21 06:54:31;;;;;;;3.80;1.88;;;31.90;99.90;;;;;;4143464;28;20050;-67
2022/05/21 06:56:42;;;;;;;3.53;1.60;;;31.80;99.90;;;;;;4135778;28;20046;-68
2022/05/21 06:58:47;;;;;;;3.88;1.77;;;31.90;99.90;;;;;;4128003;28;20064;-67
2022/05/21 07:00:52;;;;;;;4.47;2.00;;;32.00;99.90;;;;;;4137964;28;20061;-68
2022/05/21 07:02:56;;;;;;;2.75;1.45;;;32.00;99.90;;;;;;4137642;28;20050;-68
2022/05/21 07:07:33;;;;;;;3.08;1.58;;;32.10;99.90;;;;;;4132256;28;20096;-67
2022/05/21 07:09:40;;;;;;;4.00;1.80;;;32.20;99.90;;;;;;4141305;28;20041;-67
2022/05/21 07:11:47;;;;;;;2.28;1.40;;;32.20;99.90;;;;;;4144764;28;20121;-67
2022/05/21 07:13:52;;;;;;;3.85;2.00;;;32.20;99.60;;;;;;4140597;28;20054;-67
2022/05/21 07:15:57;;;;;;;4.20;1.70;;;32.10;99.60;;;;;;4141030;28;20112;-67
2022/05/21 07:18:03;;;;;;;2.90;1.40;;;32.00;99.50;;;;;;4140921;28;20138;-67
2022/05/21 07:20:21;;;;;;;3.10;1.58;;;32.00;99.70;;;;;;4141828;28;20045;-67
2022/05/21 07:22:26;;;;;;;3.30;1.52;;;32.10;99.60;;;;;;4106729;28;20058;-68
2022/05/21 07:24:31;;;;;;;2.85;1.63;;;32.40;98.90;;;;;;4141842;28;20805;-67
2022/05/21 07:26:38;;;;;;;5.63;1.80;;;32.60;98.60;;;;;;4133858;28;20068;-67
2022/05/21 07:28:43;;;;;;;2.30;1.42;;;32.90;98.50;;;;;;4137160;28;20064;-68
2022/05/21 07:30:49;;;;;;;4.03;1.40;;;33.00;98.30;;;;;;4118788;28;20050;-68
2022/05/21 07:32:55;;;;;;;3.10;1.73;;;33.00;98.40;;;;;;4135122;28;20262;-68
2022/05/21 07:35:02;;;;;;;3.65;1.70;;;32.90;98.70;;;;;;4137550;28;20058;-68
2022/05/21 07:37:07;;;;;;;3.60;1.60;;;32.80;99.00;;;;;;4133106;28;20092;-67
2022/05/21 07:39:12;;;;;;;3.47;1.52;;;32.70;98.80;;;;;;4139087;28;20045;-67
2022/05/21 07:41:19;;;;;;;4.53;1.55;;;32.50;98.60;;;;;;4136531;28;20444;-67
2022/05/21 07:43:30;;;;;;;5.63;1.42;;;32.40;98.60;;;;;;4141651;28;20412;-68
2022/05/21 07:45:38;;;;;;;3.35;1.52;;;32.40;98.80;;;;;;4128735;28;20073;-67
2022/05/21 07:47:45;;;;;;;2.08;1.27;;;32.30;98.90;;;;;;4142185;28;20041;-68
2022/05/21 07:49:57;;;;;;;3.95;1.73;;;32.20;99.20;;;;;;4142544;28;20038;-67
2022/05/21 07:52:10;;;;;;;3.90;1.65;;;32.30;98.90;;;;;;4135906;28;20555;-67
2022/05/21 07:54:15;;;;;;;5.15;1.85;;;32.40;98.40;;;;;;4141304;28;20121;-68
2022/05/21 07:56:21;;;;;;;3.30;1.60;;;32.60;98.60;;;;;;4137053;28;20053;-68
2022/05/21 07:58:29;;;;;;;3.47;1.60;;;32.80;98.20;;;;;;4141118;28;20053;-68
2022/05/21 08:00:34;;;;;;;4.00;1.88;;;32.80;98.40;;;;;;4145363;28;20056;-68
2022/05/21 08:02:42;;;;;;;2.47;1.48;;;32.80;98.40;;;;;;4143017;28;20041;-67
2022/05/21 08:04:47;;;;;;;3.20;1.50;;;33.00;97.50;;;;;;4141855;28;20042;-67
2022/05/21 08:06:53;;;;;;;3.63;1.50;;;33.10;97.40;;;;;;4142873;28;20493;-68
2022/05/21 08:09:01;;;;;;;3.50;1.60;;;33.20;97.10;;;;;;4151842;28;20037;-67
2022/05/21 08:11:07;;;;;;;6.57;1.65;;;33.20;97.10;;;;;;4157268;28;20099;-67
2022/05/21 08:13:14;;;;;;;6.90;1.80;;;33.20;97.20;;;;;;4142754;28;20542;-67
2022/05/21 08:15:19;;;;;;;3.65;1.30;;;33.00;97.20;;;;;;4141397;28;20050;-67
2022/05/21 08:17:26;;;;;;;3.25;1.65;;;32.90;97.10;;;;;;4125891;28;20057;-67
2022/05/21 08:19:31;;;;;;;3.38;1.48;;;32.90;97.30;;;;;;4133951;28;20050;-67
2022/05/21 08:21:39;;;;;;;6.03;1.98;;;32.80;97.50;;;;;;4141837;28;20050;-67
2022/05/21 08:28:19;;;;;;;3.63;1.77;;;32.80;97.90;;;;;;4142356;28;20137;-67
2022/05/21 08:30:26;;;;;;;3.65;2.05;;;32.80;97.90;;;;;;4146202;28;20101;-67
2022/05/21 08:32:30;;;;;;;3.88;2.17;;;32.70;97.90;;;;;;4146339;28;20038;-67
2022/05/21 08:34:37;;;;;;;2.97;2.10;;;32.70;97.70;;;;;;4146528;28;20193;-68
2022/05/21 08:36:41;;;;;;;5.30;1.80;;;32.80;98.00;;;;;;4132090;28;20062;-67
2022/05/21 08:38:47;;;;;;;4.05;1.80;;;32.60;98.10;;;;;;4122986;28;20051;-67
2022/05/21 08:41:05;;;;;;;4.60;2.10;;;32.50;98.80;;;;;;4144967;28;20046;-67
2022/05/21 08:43:42;;;;;;;4.78;1.77;;;32.40;99.00;;;;;;4144813;28;20042;-68
2022/05/21 08:46:05;;;;;;;4.30;1.80;;;32.20;99.10;;;;;;4128946;28;20054;-67
2022/05/21 08:48:11;;;;;;;3.83;1.55;;;32.00;99.40;;;;;;4149915;28;20077;-67
2022/05/21 08:50:16;;;;;;;6.35;2.50;;;31.80;98.90;;;;;;4121285;28;20452;-68
2022/05/21 08:52:35;;;;;;;3.53;2.42;;;31.80;99.20;;;;;;4126321;28;20057;-68
2022/05/21 08:54:44;;;;;;;5.35;2.38;;;31.80;99.10;;;;;;4146971;28;20109;-68
2022/05/21 08:56:50;;;;;;;3.42;1.88;;;31.80;99.20;;;;;;4144295;28;20124;-68
2022/05/21 08:59:04;;;;;;;4.13;2.15;;;31.80;98.90;;;;;;4114404;28;20493;-68
2022/05/21 09:01:13;;;;;;;4.97;2.13;;;31.80;98.80;;;;;;4134677;28;20065;-68
2022/05/21 09:03:20;;;;;;;4.22;1.98;;;31.90;98.90;;;;;;4141450;28;20038;-68
2022/05/21 09:05:25;;;;;;;3.85;1.90;;;31.90;98.70;;;;;;4143010;28;20496;-69
2022/05/21 09:07:32;;;;;;;5.25;1.80;;;31.90;98.80;;;;;;4143566;28;20099;-68
2022/05/21 09:09:44;;;;;;;4.13;2.08;;;31.90;98.70;;;;;;4151839;28;20447;-68
2022/05/21 09:12:09;;;;;;;3.40;1.70;;;31.90;98.80;;;;;;4145564;28;20061;-68
2022/05/21 09:14:22;;;;;;;4.45;2.13;;;31.80;98.40;;;;;;4144472;28;20789;-68
2022/05/21 09:18:45;;;;;;;3.65;1.75;;;31.60;99.00;;;;;;4153581;28;20049;-69
2022/05/21 09:21:00;;;;;;;4.03;2.08;;;31.60;99.20;;;;;;4152217;28;20045;-68
2022/05/21 09:23:08;;;;;;;6.25;3.00;;;31.50;99.30;;;;;;4150907;28;20136;-68
2022/05/21 09:25:22;;;;;;;8.20;2.75;;;31.40;99.80;;;;;;4152095;28;20045;-69
2022/05/21 09:27:27;;;;;;;4.50;2.35;;;31.30;99.90;;;;;;4139159;28;20096;-69
2022/05/21 09:29:34;;;;;;;6.57;2.92;;;31.30;99.90;;;;;;4149134;28;20045;-68
2022/05/21 09:31:39;;;;;;;7.95;3.80;;;31.20;99.90;;;;;;4144761;28;20033;-70
2022/05/21 09:33:45;;;;;;;5.70;2.90;;;31.00;99.90;;;;;;4167070;28;20053;-70
2022/05/21 09:35:54;;;;;;;9.88;3.38;;;30.80;99.90;;;;;;4155133;28;20068;-70
2022/05/21 09:38:12;;;;;;;7.68;3.33;;;30.60;99.90;;;;;;4125416;28;20058;-70
2022/05/21 09:40:25;;;;;;;10.77;3.90;;;30.50;99.90;;;;;;4126112;28;20101;-69
2022/05/21 09:47:15;;;;;;;7.80;3.78;;;30.30;99.90;;;;;;4146525;28;20209;-70
2022/05/21 09:49:21;;;;;;;;;;;30.20;99.90;;;;;;4148855;28;20454;-70
2022/05/21 09:51:33;;;;;;;10.07;4.15;;;30.20;99.90;;;;;;4146566;28;20020;-71
2022/05/21 09:53:40;;;;;;;12.25;4.43;;;30.20;99.90;;;;;;4125867;28;20069;-70
2022/05/21 09:55:45;;;;;;;7.75;4.05;;;30.10;99.90;;;;;;4143618;28;20042;-70
2022/05/21 09:57:49;;;;;;;8.45;3.90;;;30.10;99.90;;;;;;4126493;28;20050;-70
2022/05/21 10:00:07;;;;;;;8.55;4.03;;;30.00;99.90;;;;;;4127761;28;20047;-70
2022/05/21 10:02:22;;;;;;;;;;;30.00;99.90;;;;;;4145087;28;20053;-70
2022/05/21 10:04:40;;;;;;;8.07;3.90;;;30.00;99.90;;;;;;4159006;28;19925;-70
2022/05/21 10:06:50;;;;;;;9.48;4.93;;;29.80;99.90;;;;;;4125252;28;20093;-69
2022/05/21 10:11:53;;;;;;;10.55;3.95;;;29.40;99.90;;;;;;4147798;28;20497;-68
2022/05/21 10:14:32;;;;;;;9.50;4.05;;;29.20;99.90;;;;;;4117099;28;20536;-67
2022/05/21 10:16:40;;;;;;;8.15;3.75;;;29.00;99.90;;;;;;4128520;28;20050;-69
2022/05/21 10:18:55;;;;;;;5.40;3.30;;;29.00;99.90;;;;;;4144584;28;20072;-68
2022/05/21 10:21:19;;;;;;;5.82;2.67;;;28.80;99.90;;;;;;4126426;28;20056;-69
2022/05/21 10:23:36;;;;;;;4.55;2.03;;;28.70;99.90;;;;;;4140797;28;20062;-69
2022/05/21 10:25:59;;;;;;;4.55;2.50;;;28.50;99.90;;;;;;4141785;28;20038;-68
2022/05/21 10:28:29;;;;;;;4.07;1.60;;;28.50;99.90;;;;;;4143300;28;20130;-68
2022/05/21 10:30:55;;;;;;;4.88;1.70;;;28.30;99.90;;;;;;4142053;28;20042;-67
2022/05/21 10:33:01;;;;;;;5.05;1.48;;;28.30;99.90;;;;;;4142924;28;20082;-68
2022/05/21 10:35:40;;;;;;;3.80;1.52;;;28.20;99.90;;;;;;4144032;28;20058;-68
2022/05/21 10:38:09;;;;;;;3.10;1.30;;;28.20;99.90;;;;;;4140961;28;20132;-68
2022/05/21 10:40:35;;;;;;;3.92;1.40;;;28.20;99.90;;;;;;4143256;28;20056;-68
2022/05/21 10:43:09;;;;;;;2.92;1.50;;;28.20;99.90;;;;;;4141839;28;20054;-68
2022/05/21 10:45:33;;;;;;;3.00;1.50;;;28.10;99.90;;;;;;4142777;28;20042;-67
2022/05/21 10:48:07;;;;;;;4.22;1.98;;;28.10;99.90;;;;;;4126350;28;20129;-69
2022/05/21 10:50:18;;;;;;;4.32;2.03;;;28.10;99.90;;;;;;4135114;28;20058;-68
2022/05/21 10:52:45;;;;;;;2.97;1.70;;;27.90;99.90;;;;;;4142258;28;20105;-69
2022/05/21 10:55:05;;;;;;;4.40;1.92;;;27.90;99.90;;;;;;4142009;28;20453;-69
2022/05/21 10:57:25;;;;;;;2.85;2.00;;;28.00;99.90;;;;;;4143501;28;20400;-68
2022/05/21 10:59:46;;;;;;;3.92;2.00;;;28.00;99.90;;;;;;4143634;28;20073;-69
2022/05/21 11:02:04;;;;;;;7.45;1.95;;;28.00;99.90;;;;;;4143004;28;20050;-68
2022/05/21 11:04:24;;;;;;;7.38;2.28;;;27.90;99.90;;;;;;4144773;28;20508;-68
2022/05/21 11:06:58;;;;;;;3.90;1.83;;;27.80;99.90;;;;;;4143725;28;20042;-64
2022/05/21 11:09:15;;;;;;;5.70;2.20;;;27.80;99.90;;;;;;4142787;28;20048;-67
2022/05/21 11:11:52;;;;;;;4.38;2.42;;;27.70;99.90;;;;;;4144379;28;20377;-67
2022/05/21 11:14:08;;;;;;;6.57;3.03;;;27.80;99.90;;;;;;4148505;28;20057;-67
2022/05/21 11:16:30;;;;;;;4.95;3.15;;;27.80;99.90;;;;;;4157489;28;20543;-66
2022/05/21 11:18:46;;;;;;;4.55;2.70;;;27.70;99.90;;;;;;4147055;28;20053;-67
2022/05/21 11:20:59;;;;;;;5.85;2.60;;;27.70;99.90;;;;;;4147337;28;20476;-67
2022/05/21 11:23:07;;;;;;;4.50;2.47;;;27.70;99.90;;;;;;4149044;28;20089;-68
2022/05/21 11:25:27;;;;;;;4.68;2.65;;;27.70;99.90;;;;;;4148962;28;20048;-67
2022/05/21 11:27:54;;;;;;;2.53;2.03;;;27.70;99.90;;;;;;4155000;28;20042;-70
2022/05/21 11:30:07;;;;;;;5.85;2.42;;;27.70;99.90;;;;;;4148185;28;20491;-68
2022/05/21 11:37:21;;;;;;;3.83;1.40;;;27.60;99.90;;;;;;4148786;28;20128;-69
2022/05/21 11:39:28;;;;;;;3.35;1.42;;;27.50;99.90;;;;;;4143636;28;20046;-67
2022/05/21 11:41:55;;;;;;;2.05;1.20;;;27.50;99.90;;;;;;4146730;28;20042;-66
2022/05/21 11:46:44;;;;;;;;;;;27.60;99.90;;;;;;4142137;28;20778;-66
2022/05/21 11:49:24;;;;;;;4.10;1.10;;;27.50;99.90;;;;;;4132760;28;19926;-65
2022/05/21 11:51:47;;;;;;;3.58;1.38;;;27.50;99.90;;;;;;4094597;29;20086;-67
2022/05/21 11:54:09;;;;;;;2.85;1.10;;;27.50;99.90;;;;;;4097154;28;20141;-66
2022/05/21 11:57:04;;;;;;;3.00;1.13;;;27.50;99.90;;;;;;4074254;29;20052;-65
2022/05/21 11:59:25;;;;;;;3.72;1.10;;;27.50;99.90;;;;;;4080908;29;20051;-66